createdAt,value
2017-01-05T00:00:14.077Z,-91
2017-01-05T00:01:14.151Z,-91
2017-01-05T00:02:14.150Z,-91
2017-01-05T00:03:14.110Z,-91
2017-01-05T00:04:14.136Z,-91
2017-01-05T00:05:14.110Z,-91
2017-01-05T00:06:14.173Z,-91
2017-01-05T00:07:14.068Z,-91
2017-01-05T00:08:14.197Z,-91
2017-01-05T00:09:14.163Z,-91
2017-01-05T00:10:14.125Z,-91
2017-01-05T00:11:14.091Z,-91
2017-01-05T00:12:14.110Z,-91
2017-01-05T00:13:14.092Z,-90
2017-01-05T00:14:14.096Z,-90
2017-01-05T00:15:14.158Z,-90
2017-01-05T00:16:14.104Z,-90
2017-01-05T00:17:14.170Z,-90
2017-01-05T00:18:14.185Z,-91
2017-01-05T00:19:14.121Z,-90
2017-01-05T00:20:14.172Z,-91
2017-01-05T00:21:14.233Z,-90
2017-01-05T00:22:14.077Z,-90
2017-01-05T00:23:14.251Z,-90
2017-01-05T00:24:14.120Z,-91
2017-01-05T00:25:14.140Z,-91
2017-01-05T00:26:14.133Z,-91
2017-01-05T00:27:14.235Z,-91
2017-01-05T00:28:14.339Z,-91
2017-01-05T00:29:14.133Z,-91
2017-01-05T00:30:14.218Z,-91
2017-01-05T00:31:14.138Z,-91
2017-01-05T00:32:14.154Z,-91
2017-01-05T00:33:15.077Z,-91
2017-01-05T00:34:14.150Z,-91
2017-01-05T00:35:14.594Z,-91
2017-01-05T00:36:14.165Z,-91
2017-01-05T00:37:14.220Z,-91
2017-01-05T00:38:14.169Z,-91
2017-01-05T00:39:14.261Z,-92
2017-01-05T00:40:14.179Z,-92
2017-01-05T00:41:14.115Z,-92
2017-01-05T00:42:14.239Z,-91
2017-01-05T00:43:14.220Z,-92
2017-01-05T00:44:14.221Z,-92
2017-01-05T00:45:14.128Z,-92
2017-01-05T00:46:14.184Z,-92
2017-01-05T00:47:14.189Z,-91
2017-01-05T00:48:15.722Z,-92
2017-01-05T00:49:14.155Z,-92
2017-01-05T00:50:14.338Z,-92
2017-01-05T00:51:14.294Z,-92
2017-01-05T00:52:14.235Z,-92
2017-01-05T00:53:14.272Z,-92
2017-01-05T00:54:14.317Z,-93
2017-01-05T00:55:14.146Z,-92
2017-01-05T00:56:14.275Z,-92
2017-01-05T00:57:14.167Z,-93
2017-01-05T00:58:14.169Z,-92
2017-01-05T00:59:14.213Z,-93
2017-01-05T01:00:14.428Z,-92
2017-01-05T01:01:14.305Z,-93
2017-01-05T01:02:14.258Z,-92
2017-01-05T01:03:14.285Z,-93
2017-01-05T01:04:14.255Z,-93
2017-01-05T01:05:14.439Z,-93
2017-01-05T01:06:14.406Z,-93
2017-01-05T01:07:14.339Z,-93
2017-01-05T01:08:14.372Z,-93
2017-01-05T01:09:14.384Z,-93
2017-01-05T01:10:14.329Z,-93
2017-01-05T01:11:14.247Z,-94
2017-01-05T01:12:14.252Z,-93
2017-01-05T01:13:14.314Z,-93
2017-01-05T01:14:14.389Z,-93
2017-01-05T01:15:14.282Z,-93
2017-01-05T01:16:14.222Z,-93
2017-01-05T01:17:14.342Z,-93
2017-01-05T01:18:14.274Z,-93
2017-01-05T01:19:14.335Z,-93
2017-01-05T01:20:14.408Z,-93
2017-01-05T01:21:14.426Z,-93
2017-01-05T01:22:14.250Z,-93
2017-01-05T01:23:14.331Z,-93
2017-01-05T01:24:14.342Z,-94
2017-01-05T01:25:14.285Z,-93
2017-01-05T01:26:14.315Z,-93
2017-01-05T01:27:14.298Z,-93
2017-01-05T01:28:14.424Z,-93
2017-01-05T01:29:14.301Z,-91
2017-01-05T01:30:14.369Z,-91
2017-01-05T01:31:14.311Z,-94
2017-01-05T01:32:14.434Z,-93
2017-01-05T01:33:14.314Z,-93
2017-01-05T01:34:14.434Z,-93
2017-01-05T01:35:14.263Z,-93
2017-01-05T01:36:14.405Z,-93
2017-01-05T01:37:14.391Z,-94
2017-01-05T01:38:14.359Z,-93
2017-01-05T01:39:14.339Z,-93
2017-01-05T01:40:14.359Z,-93
2017-01-05T01:41:14.397Z,-93
2017-01-05T01:42:14.399Z,-93
2017-01-05T01:43:14.367Z,-93
2017-01-05T01:44:14.334Z,-92
2017-01-05T01:45:14.348Z,-93
2017-01-05T01:46:14.375Z,-93
2017-01-05T01:47:14.457Z,-93
2017-01-05T01:48:14.484Z,-93
2017-01-05T01:49:14.485Z,-93
2017-01-05T01:50:14.379Z,-93
2017-01-05T01:51:14.428Z,-93
2017-01-05T01:52:14.386Z,-93
2017-01-05T01:53:14.373Z,-93
2017-01-05T01:54:14.429Z,-94
2017-01-05T01:55:14.436Z,-93
2017-01-05T01:56:14.428Z,-93
2017-01-05T01:57:14.403Z,-93
2017-01-05T01:58:14.443Z,-93
2017-01-05T01:59:14.507Z,-93
2017-01-05T02:00:14.412Z,-93
2017-01-05T02:01:14.449Z,-93
2017-01-05T02:02:14.448Z,-93
2017-01-05T02:03:14.536Z,-94
2017-01-05T02:04:14.501Z,-93
2017-01-05T02:05:14.467Z,-93
2017-01-05T02:06:14.464Z,-93
2017-01-05T02:07:14.523Z,-94
2017-01-05T02:08:14.451Z,-93
2017-01-05T02:09:14.424Z,-94
2017-01-05T02:10:14.579Z,-93
2017-01-05T02:11:14.434Z,-93
2017-01-05T02:12:14.532Z,-93
2017-01-05T02:13:14.489Z,-94
2017-01-05T02:14:14.486Z,-94
2017-01-05T02:15:14.535Z,-93
2017-01-05T02:16:14.425Z,-94
2017-01-05T02:17:14.427Z,-93
2017-01-05T02:18:14.517Z,-93
2017-01-05T02:19:14.496Z,-93
2017-01-05T02:20:14.587Z,-93
2017-01-05T02:21:14.483Z,-94
2017-01-05T02:22:14.381Z,-94
2017-01-05T02:23:14.364Z,-95
2017-01-05T02:24:14.505Z,-94
2017-01-05T02:25:14.616Z,-93
2017-01-05T02:26:15.225Z,-94
2017-01-05T02:27:14.505Z,-94
2017-01-05T02:28:14.414Z,-93
2017-01-05T02:29:14.477Z,-94
2017-01-05T02:30:14.484Z,-94
2017-01-05T02:31:14.543Z,-94
2017-01-05T02:32:14.566Z,-95
2017-01-05T02:33:14.438Z,-94
2017-01-05T02:34:14.599Z,-94
2017-01-05T02:35:14.569Z,-94
2017-01-05T02:36:14.652Z,-94
2017-01-05T02:37:14.555Z,-94
2017-01-05T02:38:14.642Z,-94
2017-01-05T02:39:14.570Z,-94
2017-01-05T02:40:14.582Z,-94
2017-01-05T02:41:14.464Z,-94
2017-01-05T02:42:14.558Z,-94
2017-01-05T02:43:14.639Z,-94
2017-01-05T02:44:14.437Z,-94
2017-01-05T02:45:14.582Z,-94
2017-01-05T02:46:14.623Z,-94
2017-01-05T02:47:14.561Z,-94
2017-01-05T02:48:14.641Z,-93
2017-01-05T02:49:14.528Z,-93
2017-01-05T02:50:14.532Z,-92
2017-01-05T02:51:14.535Z,-92
2017-01-05T02:52:14.645Z,-92
2017-01-05T02:53:14.588Z,-91
2017-01-05T02:54:14.588Z,-90
2017-01-05T02:55:14.461Z,-93
2017-01-05T02:56:14.604Z,-93
2017-01-05T02:57:14.717Z,-93
2017-01-05T02:58:14.536Z,-93
2017-01-05T02:59:14.658Z,-93
2017-01-05T03:00:14.612Z,-94
2017-01-05T03:01:14.508Z,-93
2017-01-05T03:02:14.821Z,-93
2017-01-05T03:03:14.549Z,-94
2017-01-05T03:04:14.499Z,-92
2017-01-05T03:05:14.609Z,-93
2017-01-05T03:06:14.622Z,-93
2017-01-05T03:07:14.576Z,-93
2017-01-05T03:08:14.732Z,-93
2017-01-05T03:09:14.778Z,-93
2017-01-05T03:10:14.728Z,-94
2017-01-05T03:11:14.574Z,-93
2017-01-05T03:12:14.604Z,-93
2017-01-05T03:13:14.622Z,-93
2017-01-05T03:14:14.654Z,-93
2017-01-05T03:15:14.578Z,-93
2017-01-05T03:16:14.609Z,-93
2017-01-05T03:17:14.602Z,-93
2017-01-05T03:18:14.621Z,-93
2017-01-05T03:19:14.684Z,-93
2017-01-05T03:20:14.649Z,-93
2017-01-05T03:21:14.599Z,-91
2017-01-05T03:22:14.604Z,-90
2017-01-05T03:23:14.674Z,-91
2017-01-05T03:24:14.768Z,-93
2017-01-05T03:25:14.689Z,-93
2017-01-05T03:26:14.759Z,-93
2017-01-05T03:27:14.611Z,-93
2017-01-05T03:28:14.572Z,-92
2017-01-05T03:29:14.725Z,-93
2017-01-05T03:30:14.661Z,-93
2017-01-05T03:31:14.618Z,-93
2017-01-05T03:32:14.645Z,-93
2017-01-05T03:33:14.724Z,-93
2017-01-05T03:34:14.654Z,-93
2017-01-05T03:35:14.713Z,-93
2017-01-05T03:36:14.757Z,-93
2017-01-05T03:37:14.651Z,-92
2017-01-05T03:38:14.693Z,-93
2017-01-05T03:39:14.667Z,-92
2017-01-05T03:40:14.801Z,-93
2017-01-05T03:41:14.832Z,-93
2017-01-05T03:42:14.730Z,-93
2017-01-05T03:43:14.795Z,-93
2017-01-05T03:44:14.682Z,-93
2017-01-05T03:45:14.704Z,-93
2017-01-05T03:46:14.819Z,-94
2017-01-05T03:47:14.623Z,-93
2017-01-05T03:48:14.705Z,-93
2017-01-05T03:49:14.756Z,-94
2017-01-05T03:50:14.775Z,-94
2017-01-05T03:51:14.703Z,-94
2017-01-05T03:52:14.707Z,-94
2017-01-05T03:53:14.629Z,-93
2017-01-05T03:54:14.716Z,-94
2017-01-05T03:55:14.799Z,-93
2017-01-05T03:56:14.788Z,-93
2017-01-05T03:57:14.697Z,-93
2017-01-05T03:58:14.749Z,-94
2017-01-05T03:59:14.708Z,-93
2017-01-05T04:00:14.636Z,-94
2017-01-05T04:01:14.814Z,-93
2017-01-05T04:02:14.674Z,-94
2017-01-05T04:03:15.972Z,-94
2017-01-05T04:04:14.786Z,-94
2017-01-05T04:05:14.750Z,-93
2017-01-05T04:06:14.821Z,-93
2017-01-05T04:07:14.820Z,-93
2017-01-05T04:08:14.815Z,-93
2017-01-05T04:09:14.737Z,-93
2017-01-05T04:10:14.856Z,-93
2017-01-05T04:11:14.773Z,-93
2017-01-05T04:12:14.885Z,-94
2017-01-05T04:13:14.733Z,-94
2017-01-05T04:14:14.832Z,-94
2017-01-05T04:15:14.745Z,-94
2017-01-05T04:16:14.810Z,-94
2017-01-05T04:17:14.850Z,-93
2017-01-05T04:18:14.754Z,-95
2017-01-05T04:19:14.724Z,-94
2017-01-05T04:20:14.847Z,-94
2017-01-05T04:21:14.727Z,-94
2017-01-05T04:22:14.887Z,-95
2017-01-05T04:23:14.836Z,-94
2017-01-05T04:24:14.733Z,-94
2017-01-05T04:25:14.815Z,-94
2017-01-05T04:26:14.791Z,-94
2017-01-05T04:27:14.803Z,-94
2017-01-05T04:28:14.889Z,-95
2017-01-05T04:29:14.832Z,-94
2017-01-05T04:30:14.923Z,-95
2017-01-05T04:31:15.490Z,-94
2017-01-05T04:32:14.824Z,-95
2017-01-05T04:33:14.858Z,-95
2017-01-05T04:34:14.928Z,-94
2017-01-05T04:35:14.826Z,-95
2017-01-05T04:36:14.846Z,-94
2017-01-05T04:37:14.881Z,-94
2017-01-05T04:38:14.948Z,-94
2017-01-05T04:39:14.902Z,-94
2017-01-05T04:40:14.852Z,-94
2017-01-05T04:41:14.937Z,-94
2017-01-05T04:42:14.848Z,-94
2017-01-05T04:43:14.954Z,-94
2017-01-05T04:44:14.884Z,-94
2017-01-05T04:45:14.833Z,-94
2017-01-05T04:46:14.933Z,-93
2017-01-05T04:47:14.915Z,-92
2017-01-05T04:48:14.838Z,-94
2017-01-05T04:49:14.879Z,-94
2017-01-05T04:50:14.776Z,-94
2017-01-05T04:51:14.959Z,-94
2017-01-05T04:52:14.942Z,-95
2017-01-05T04:53:14.933Z,-95
2017-01-05T04:54:15.543Z,-94
2017-01-05T04:55:14.793Z,-94
2017-01-05T04:56:14.931Z,-94
2017-01-05T04:57:14.800Z,-94
2017-01-05T04:58:15.017Z,-94
2017-01-05T04:59:14.948Z,-94
2017-01-05T05:00:14.853Z,-95
2017-01-05T05:01:14.836Z,-94
2017-01-05T05:02:14.886Z,-94
2017-01-05T05:03:14.948Z,-94
2017-01-05T05:04:14.907Z,-94
2017-01-05T05:05:15.092Z,-94
2017-01-05T05:06:14.973Z,-93
2017-01-05T05:07:14.951Z,-94
2017-01-05T05:08:15.073Z,-94
2017-01-05T05:09:14.897Z,-94
2017-01-05T05:10:14.979Z,-94
2017-01-05T05:11:14.902Z,-94
2017-01-05T05:12:15.051Z,-93
2017-01-05T05:13:15.032Z,-91
2017-01-05T05:14:15.030Z,-91
2017-01-05T05:15:15.031Z,-92
2017-01-05T05:16:14.953Z,-93
2017-01-05T05:17:14.978Z,-93
2017-01-05T05:18:15.024Z,-94
2017-01-05T05:19:14.866Z,-92
2017-01-05T05:20:15.039Z,-94
2017-01-05T05:21:14.905Z,-93
2017-01-05T05:22:14.855Z,-93
2017-01-05T05:23:14.941Z,-93
2017-01-05T05:24:14.928Z,-93
2017-01-05T05:25:15.062Z,-93
2017-01-05T05:26:14.973Z,-93
2017-01-05T05:27:14.939Z,-94
2017-01-05T05:28:15.023Z,-93
2017-01-05T05:29:14.880Z,-93
2017-01-05T05:30:15.072Z,-92
2017-01-05T05:31:15.015Z,-92
2017-01-05T05:32:15.134Z,-93
2017-01-05T05:33:14.953Z,-92
2017-01-05T05:34:14.895Z,-92
2017-01-05T05:35:15.098Z,-93
2017-01-05T05:36:15.097Z,-92
2017-01-05T05:37:15.118Z,-92
2017-01-05T05:38:15.048Z,-92
2017-01-05T05:39:15.044Z,-92
2017-01-05T05:40:15.057Z,-93
2017-01-05T05:41:14.982Z,-92
2017-01-05T05:42:15.068Z,-93
2017-01-05T05:43:15.124Z,-92
2017-01-05T05:44:15.148Z,-92
2017-01-05T05:45:15.006Z,-92
2017-01-05T05:46:15.021Z,-92
2017-01-05T05:47:15.005Z,-92
2017-01-05T05:48:15.163Z,-92
2017-01-05T05:49:15.027Z,-92
2017-01-05T05:50:15.134Z,-92
2017-01-05T05:51:15.082Z,-91
2017-01-05T05:52:15.068Z,-92
2017-01-05T05:53:15.040Z,-90
2017-01-05T05:54:15.034Z,-89
2017-01-05T05:55:14.978Z,-90
2017-01-05T05:56:15.146Z,-91
2017-01-05T05:57:15.035Z,-91
2017-01-05T05:58:15.173Z,-92
2017-01-05T05:59:15.119Z,-93
2017-01-05T06:00:15.153Z,-92
2017-01-05T06:01:15.037Z,-92
2017-01-05T06:02:15.066Z,-92
2017-01-05T06:03:15.029Z,-92
2017-01-05T06:04:15.067Z,-92
2017-01-05T06:05:15.039Z,-92
2017-01-05T06:06:14.980Z,-92
2017-01-05T06:07:15.075Z,-92
2017-01-05T06:08:15.082Z,-92
2017-01-05T06:09:15.027Z,-91
2017-01-05T06:10:15.086Z,-92
2017-01-05T06:11:15.047Z,-92
2017-01-05T06:12:15.117Z,-92
2017-01-05T06:13:15.051Z,-92
2017-01-05T06:14:15.159Z,-92
2017-01-05T06:15:15.192Z,-92
2017-01-05T06:16:15.154Z,-92
2017-01-05T06:17:15.113Z,-92
2017-01-05T06:18:15.201Z,-92
2017-01-05T06:19:15.062Z,-92
2017-01-05T06:20:15.108Z,-92
2017-01-05T06:21:15.135Z,-92
2017-01-05T06:22:15.127Z,-92
2017-01-05T06:23:15.030Z,-92
2017-01-05T06:24:15.161Z,-92
2017-01-05T06:25:15.201Z,-92
2017-01-05T06:26:15.223Z,-92
2017-01-05T06:27:15.160Z,-92
2017-01-05T06:28:15.048Z,-92
2017-01-05T06:29:15.124Z,-92
2017-01-05T06:30:15.198Z,-92
2017-01-05T06:31:15.134Z,-92
2017-01-05T06:32:15.116Z,-92
2017-01-05T06:33:15.114Z,-92
2017-01-05T06:34:15.141Z,-91
2017-01-05T06:35:15.210Z,-91
2017-01-05T06:36:15.142Z,-91
2017-01-05T06:37:15.069Z,-92
2017-01-05T06:38:15.188Z,-92
2017-01-05T06:39:15.234Z,-93
2017-01-05T06:40:15.147Z,-92
2017-01-05T06:41:15.627Z,-92
2017-01-05T06:42:15.096Z,-92
2017-01-05T06:43:15.214Z,-92
2017-01-05T06:44:15.225Z,-92
2017-01-05T06:45:15.153Z,-92
2017-01-05T06:46:15.263Z,-91
2017-01-05T06:47:15.141Z,-91
2017-01-05T06:48:15.279Z,-91
2017-01-05T06:49:15.205Z,-92
2017-01-05T06:50:15.152Z,-92
2017-01-05T06:51:15.118Z,-91
2017-01-05T06:52:15.215Z,-91
2017-01-05T06:53:15.229Z,-91
2017-01-05T06:54:15.229Z,-91
2017-01-05T06:55:15.229Z,-91
2017-01-05T06:56:15.242Z,-91
2017-01-05T06:57:15.226Z,-91
2017-01-05T06:58:15.300Z,-91
2017-01-05T06:59:15.194Z,-91
2017-01-05T07:00:16.674Z,-91
2017-01-05T07:01:15.182Z,-89
2017-01-05T07:02:15.265Z,-91
2017-01-05T07:03:15.148Z,-91
2017-01-05T07:04:15.184Z,-91
2017-01-05T07:05:15.205Z,-90
2017-01-05T07:06:15.227Z,-90
2017-01-05T07:07:15.433Z,-89
2017-01-05T07:08:15.279Z,-91
2017-01-05T07:09:15.362Z,-96
2017-01-05T07:10:15.235Z,-85
2017-01-05T07:11:15.310Z,-85
2017-01-05T07:12:15.237Z,-84
2017-01-05T07:13:15.222Z,-84
2017-01-05T07:14:15.277Z,-84
2017-01-05T07:15:15.243Z,-84
2017-01-05T07:16:15.439Z,-84
2017-01-05T07:17:15.332Z,-84
2017-01-05T07:18:15.203Z,-84
2017-01-05T07:19:15.152Z,-84
2017-01-05T07:20:15.297Z,-84
2017-01-05T07:21:15.194Z,-84
2017-01-05T07:22:15.330Z,-84
2017-01-05T07:23:15.394Z,-84
2017-01-05T07:24:15.245Z,-84
2017-01-05T07:25:15.300Z,-84
2017-01-05T07:26:15.336Z,-84
2017-01-05T07:27:15.387Z,-85
2017-01-05T07:28:15.310Z,-84
2017-01-05T07:29:15.323Z,-84
2017-01-05T07:30:15.305Z,-84
2017-01-05T07:31:15.388Z,-84
2017-01-05T07:32:15.348Z,-84
2017-01-05T07:33:15.366Z,-84
2017-01-05T07:34:15.300Z,-84
2017-01-05T07:35:15.335Z,-84
2017-01-05T07:36:15.361Z,-84
2017-01-05T07:37:15.341Z,-84
2017-01-05T07:38:15.390Z,-84
2017-01-05T07:39:15.394Z,-84
2017-01-05T07:40:15.391Z,-84
2017-01-05T07:41:15.343Z,-84
2017-01-05T07:42:15.248Z,-84
2017-01-05T07:43:15.235Z,-83
2017-01-05T07:44:15.365Z,-84
2017-01-05T07:45:15.422Z,-84
2017-01-05T07:46:15.306Z,-84
2017-01-05T07:47:15.367Z,-83
2017-01-05T07:48:15.488Z,-84
2017-01-05T07:49:15.339Z,-84
2017-01-05T07:50:15.452Z,-84
2017-01-05T07:51:15.341Z,-84
2017-01-05T07:52:15.475Z,-84
2017-01-05T07:53:15.386Z,-84
2017-01-05T07:54:15.363Z,-84
2017-01-05T07:55:15.424Z,-84
2017-01-05T07:56:15.464Z,-84
2017-01-05T07:57:15.345Z,-84
2017-01-05T07:58:15.344Z,-83
2017-01-05T07:59:15.424Z,-84
2017-01-05T08:00:15.474Z,-84
2017-01-05T08:01:15.490Z,-84
2017-01-05T08:02:15.514Z,-84
2017-01-05T08:03:15.306Z,-84
2017-01-05T08:04:15.355Z,-84
2017-01-05T08:05:15.355Z,-84
2017-01-05T08:06:15.375Z,-84
2017-01-05T08:07:15.474Z,-84
2017-01-05T08:08:15.413Z,-83
2017-01-05T08:09:15.436Z,-84
2017-01-05T08:10:15.407Z,-84
2017-01-05T08:11:15.491Z,-84
2017-01-05T08:12:15.429Z,-84
2017-01-05T08:13:15.408Z,-84
2017-01-05T08:14:15.347Z,-84
2017-01-05T08:15:15.384Z,-84
2017-01-05T08:16:15.447Z,-84
2017-01-05T08:17:15.431Z,-84
2017-01-05T08:18:15.666Z,-83
2017-01-05T08:19:15.461Z,-84
2017-01-05T08:20:15.392Z,-84
2017-01-05T08:21:15.429Z,-83
2017-01-05T08:22:15.357Z,-83
2017-01-05T08:23:15.523Z,-84
2017-01-05T08:24:15.404Z,-83
2017-01-05T08:25:15.375Z,-84
2017-01-05T08:26:15.472Z,-83
2017-01-05T08:27:15.653Z,-83
2017-01-05T08:28:15.434Z,-83
2017-01-05T08:29:15.448Z,-83
2017-01-05T08:30:15.419Z,-83
2017-01-05T08:31:15.474Z,-83
2017-01-05T08:32:15.435Z,-83
2017-01-05T08:33:15.565Z,-83
2017-01-05T08:34:15.481Z,-83
2017-01-05T08:35:15.439Z,-83
2017-01-05T08:36:15.588Z,-83
2017-01-05T08:37:15.453Z,-83
2017-01-05T08:38:15.528Z,-83
2017-01-05T08:39:15.438Z,-83
2017-01-05T08:40:15.486Z,-83
2017-01-05T08:41:15.522Z,-83
2017-01-05T08:42:15.599Z,-83
2017-01-05T08:43:15.545Z,-83
2017-01-05T08:44:15.586Z,-83
2017-01-05T08:45:15.483Z,-83
2017-01-05T08:46:15.494Z,-83
2017-01-05T08:47:15.547Z,-82
2017-01-05T08:48:15.476Z,-83
2017-01-05T08:49:15.508Z,-83
2017-01-05T08:50:15.557Z,-83
2017-01-05T08:51:15.510Z,-83
2017-01-05T08:52:15.612Z,-83
2017-01-05T08:53:15.720Z,-83
2017-01-05T08:54:15.676Z,-83
2017-01-05T08:55:15.445Z,-83
2017-01-05T08:56:15.530Z,-82
2017-01-05T08:57:15.518Z,-82
2017-01-05T08:58:15.647Z,-83
2017-01-05T08:59:15.649Z,-84
2017-01-05T09:00:15.675Z,-83
2017-01-05T09:01:15.670Z,-83
2017-01-05T09:02:15.504Z,-83
2017-01-05T09:03:15.589Z,-83
2017-01-05T09:04:16.220Z,-83
2017-01-05T09:05:15.657Z,-83
2017-01-05T09:06:15.452Z,-83
2017-01-05T09:07:15.529Z,-83
2017-01-05T09:08:15.604Z,-83
2017-01-05T09:09:15.579Z,-83
2017-01-05T09:10:15.617Z,-83
2017-01-05T09:11:15.647Z,-83
2017-01-05T09:12:15.616Z,-83
2017-01-05T09:13:15.640Z,-83
2017-01-05T09:14:15.704Z,-84
2017-01-05T09:15:15.703Z,-83
2017-01-05T09:16:15.617Z,-84
2017-01-05T09:17:15.632Z,-83
2017-01-05T09:18:15.552Z,-83
2017-01-05T09:19:15.576Z,-84
2017-01-05T09:20:15.917Z,-84
2017-01-05T09:21:15.815Z,-83
2017-01-05T09:22:15.625Z,-84
2017-01-05T09:23:15.697Z,-83
2017-01-05T09:24:15.807Z,-84
2017-01-05T09:25:15.658Z,-84
2017-01-05T09:26:15.589Z,-83
2017-01-05T09:27:15.791Z,-83
2017-01-05T09:28:15.655Z,-83
2017-01-05T09:29:15.692Z,-84
2017-01-05T09:30:15.629Z,-84
2017-01-05T09:31:15.632Z,-84
2017-01-05T09:32:15.649Z,-84
2017-01-05T09:33:15.679Z,-84
2017-01-05T09:34:15.604Z,-84
2017-01-05T09:35:15.710Z,-84
2017-01-05T09:36:15.716Z,-84
2017-01-05T09:37:15.790Z,-84
2017-01-05T09:38:15.769Z,-83
2017-01-05T09:39:15.681Z,-84
2017-01-05T09:40:15.737Z,-84
2017-01-05T09:41:15.692Z,-84
2017-01-05T09:42:15.632Z,-84
2017-01-05T09:43:15.628Z,-84
2017-01-05T09:44:15.666Z,-84
2017-01-05T09:45:15.751Z,-83
2017-01-05T09:46:15.744Z,-83
2017-01-05T09:47:16.204Z,-84
2017-01-05T09:48:16.379Z,-84
2017-01-05T09:49:16.345Z,-84
2017-01-05T09:50:15.595Z,-83
2017-01-05T09:51:15.572Z,-84
2017-01-05T09:52:15.651Z,-84
2017-01-05T09:53:15.865Z,-84
2017-01-05T09:54:15.607Z,-84
2017-01-05T09:55:15.701Z,-84
2017-01-05T09:56:15.670Z,-84
2017-01-05T09:57:15.681Z,-85
2017-01-05T09:58:15.747Z,-85
2017-01-05T09:59:15.697Z,-84
2017-01-05T10:00:15.696Z,-85
2017-01-05T10:01:15.639Z,-84
2017-01-05T10:02:15.766Z,-85
2017-01-05T10:03:15.706Z,-86
2017-01-05T10:04:15.712Z,-85
2017-01-05T10:05:15.668Z,-86
2017-01-05T10:06:15.762Z,-87
2017-01-05T10:07:15.692Z,-86
2017-01-05T10:08:15.731Z,-87
2017-01-05T10:09:15.725Z,-86
2017-01-05T10:10:15.705Z,-86
2017-01-05T10:11:15.833Z,-87
2017-01-05T10:12:15.720Z,-86
2017-01-05T10:13:15.651Z,-87
2017-01-05T10:14:15.768Z,-86
2017-01-05T10:15:15.747Z,-86
2017-01-05T10:16:15.882Z,-87
2017-01-05T10:17:15.696Z,-87
2017-01-05T10:18:15.837Z,-87
2017-01-05T10:19:15.812Z,-87
2017-01-05T10:20:15.796Z,-87
2017-01-05T10:21:15.758Z,-87
2017-01-05T10:22:15.721Z,-87
2017-01-05T10:23:15.785Z,-86
2017-01-05T10:24:15.741Z,-86
2017-01-05T10:25:15.850Z,-86
2017-01-05T10:26:15.819Z,-86
2017-01-05T10:27:15.757Z,-86
2017-01-05T10:28:15.796Z,-85
2017-01-05T10:29:15.800Z,-86
2017-01-05T10:30:15.812Z,-86
2017-01-05T10:31:15.699Z,-86
2017-01-05T10:32:15.821Z,-86
2017-01-05T10:33:15.816Z,-86
2017-01-05T10:34:15.754Z,-85
2017-01-05T10:35:15.826Z,-85
2017-01-05T10:36:15.762Z,-85
2017-01-05T10:37:15.863Z,-85
2017-01-05T10:38:15.852Z,-85
2017-01-05T10:39:15.851Z,-85
2017-01-05T10:40:15.799Z,-85
2017-01-05T10:41:15.882Z,-85
2017-01-05T10:42:15.904Z,-85
2017-01-05T10:43:15.851Z,-85
2017-01-05T10:44:15.862Z,-84
2017-01-05T10:45:15.866Z,-84
2017-01-05T10:46:15.863Z,-84
2017-01-05T10:47:15.959Z,-85
2017-01-05T10:48:15.836Z,-84
2017-01-05T10:49:15.910Z,-84
2017-01-05T10:50:15.863Z,-84
2017-01-05T10:51:15.891Z,-84
2017-01-05T10:52:15.905Z,-84
2017-01-05T10:53:15.877Z,-84
2017-01-05T10:54:15.951Z,-84
2017-01-05T10:55:16.591Z,-84
2017-01-05T10:56:15.901Z,-84
2017-01-05T10:57:16.003Z,-84
2017-01-05T10:58:15.882Z,-84
2017-01-05T10:59:15.790Z,-83
2017-01-05T11:00:15.848Z,-83
2017-01-05T11:01:15.825Z,-83
2017-01-05T11:02:15.983Z,-84
2017-01-05T11:03:15.846Z,-83
2017-01-05T11:04:15.896Z,-83
2017-01-05T11:05:15.797Z,-83
2017-01-05T11:06:15.853Z,-83
2017-01-05T11:07:16.170Z,-83
2017-01-05T11:08:15.880Z,-83
2017-01-05T11:09:15.940Z,-83
2017-01-05T11:10:15.894Z,-82
2017-01-05T11:11:15.866Z,-83
2017-01-05T11:12:15.836Z,-83
2017-01-05T11:13:15.947Z,-83
2017-01-05T11:14:15.862Z,-83
2017-01-05T11:15:15.838Z,-83
2017-01-05T11:16:15.836Z,-83
2017-01-05T11:17:15.909Z,-83
2017-01-05T11:18:16.028Z,-83
2017-01-05T11:19:16.076Z,-83
2017-01-05T11:20:16.083Z,-83
2017-01-05T11:21:15.907Z,-83
2017-01-05T11:22:15.971Z,-83
2017-01-05T11:23:16.146Z,-83
2017-01-05T11:24:15.962Z,-83
2017-01-05T11:25:15.961Z,-83
2017-01-05T11:26:15.903Z,-83
2017-01-05T11:27:15.967Z,-82
2017-01-05T11:28:16.030Z,-82
2017-01-05T11:29:16.048Z,-82
2017-01-05T11:30:16.017Z,-83
2017-01-05T11:31:15.915Z,-83
2017-01-05T11:32:16.002Z,-83
2017-01-05T11:33:15.942Z,-83
2017-01-05T11:34:16.049Z,-83
2017-01-05T11:35:16.052Z,-83
2017-01-05T11:36:15.991Z,-83
2017-01-05T11:37:15.996Z,-83
2017-01-05T11:38:16.007Z,-83
2017-01-05T11:39:16.267Z,-83
2017-01-05T11:40:16.027Z,-83
2017-01-05T11:41:16.046Z,-83
2017-01-05T11:42:15.999Z,-83
2017-01-05T11:43:16.064Z,-83
2017-01-05T11:44:15.964Z,-83
2017-01-05T11:45:15.977Z,-83
2017-01-05T11:46:16.049Z,-83
2017-01-05T11:47:16.182Z,-84
2017-01-05T11:48:15.956Z,-84
2017-01-05T11:49:16.136Z,-83
2017-01-05T11:50:16.166Z,-83
2017-01-05T11:51:16.062Z,-83
2017-01-05T11:52:16.020Z,-83
2017-01-05T11:53:16.070Z,-83
2017-01-05T11:54:16.044Z,-82
2017-01-05T11:55:16.091Z,-82
2017-01-05T11:56:16.030Z,-83
2017-01-05T11:57:15.993Z,-83
2017-01-05T11:58:16.204Z,-83
2017-01-05T11:59:16.069Z,-83
2017-01-05T12:00:15.978Z,-83
2017-01-05T12:01:16.086Z,-83
2017-01-05T12:02:16.113Z,-83
2017-01-05T12:03:16.049Z,-83
2017-01-05T12:04:16.029Z,-83
2017-01-05T12:05:16.152Z,-83
2017-01-05T12:06:16.102Z,-83
2017-01-05T12:07:16.101Z,-83
2017-01-05T12:08:16.240Z,-83
2017-01-05T12:09:16.064Z,-83
2017-01-05T12:10:16.190Z,-84
2017-01-05T12:11:16.071Z,-84
2017-01-05T12:12:16.032Z,-83
2017-01-05T12:13:16.057Z,-84
2017-01-05T12:14:16.578Z,-84
2017-01-05T12:15:16.113Z,-84
2017-01-05T12:16:16.061Z,-83
2017-01-05T12:17:16.071Z,-84
2017-01-05T12:18:16.112Z,-84
2017-01-05T12:19:16.227Z,-84
2017-01-05T12:20:16.150Z,-84
2017-01-05T12:21:16.302Z,-84
2017-01-05T12:22:16.102Z,-84
2017-01-05T12:23:16.138Z,-84
2017-01-05T12:24:16.177Z,-84
2017-01-05T12:25:16.178Z,-84
2017-01-05T12:26:16.013Z,-84
2017-01-05T12:27:16.268Z,-84
2017-01-05T12:28:16.037Z,-84
2017-01-05T12:29:16.365Z,-83
2017-01-05T12:30:16.064Z,-84
2017-01-05T12:31:16.111Z,-83
2017-01-05T12:32:16.031Z,-83
2017-01-05T12:33:16.148Z,-83
2017-01-05T12:34:16.169Z,-83
2017-01-05T12:35:16.180Z,-84
2017-01-05T12:36:16.245Z,-83
2017-01-05T12:37:16.224Z,-83
2017-01-05T12:38:16.052Z,-84
2017-01-05T12:39:16.216Z,-83
2017-01-05T12:40:16.369Z,-84
2017-01-05T12:41:16.120Z,-84
2017-01-05T12:42:16.052Z,-83
2017-01-05T12:43:17.237Z,-84
2017-01-05T12:44:16.217Z,-83
2017-01-05T12:45:16.065Z,-83
2017-01-05T12:46:16.213Z,-83
2017-01-05T12:47:16.236Z,-83
2017-01-05T12:48:16.145Z,-83
2017-01-05T12:49:16.203Z,-83
2017-01-05T12:50:16.214Z,-84
2017-01-05T12:51:16.244Z,-84
2017-01-05T12:52:16.399Z,-84
2017-01-05T12:53:16.168Z,-83
2017-01-05T12:54:16.170Z,-84
2017-01-05T12:55:16.164Z,-84
2017-01-05T12:56:16.272Z,-84
2017-01-05T12:57:16.141Z,-84
2017-01-05T12:58:16.273Z,-84
2017-01-05T12:59:16.428Z,-84
2017-01-05T13:00:16.287Z,-84
2017-01-05T13:01:16.287Z,-83
2017-01-05T13:02:16.237Z,-84
2017-01-05T13:03:16.108Z,-84
2017-01-05T13:04:16.146Z,-84
2017-01-05T13:05:16.355Z,-84
2017-01-05T13:06:16.221Z,-84
2017-01-05T13:07:16.324Z,-84
2017-01-05T13:08:16.294Z,-84
2017-01-05T13:09:16.276Z,-83
2017-01-05T13:10:16.283Z,-83
2017-01-05T13:11:16.245Z,-84
2017-01-05T13:12:16.266Z,-84
2017-01-05T13:13:16.203Z,-84
2017-01-05T13:14:16.348Z,-84
2017-01-05T13:15:16.527Z,-84
2017-01-05T13:16:16.287Z,-84
2017-01-05T13:17:16.428Z,-84
2017-01-05T13:18:16.324Z,-84
2017-01-05T13:19:16.224Z,-84
2017-01-05T13:20:16.329Z,-82
2017-01-05T13:21:16.301Z,-84
2017-01-05T13:22:16.231Z,-84
2017-01-05T13:23:16.513Z,-84
2017-01-05T13:24:16.226Z,-84
2017-01-05T13:25:16.279Z,-84
2017-01-05T13:26:16.288Z,-84
2017-01-05T13:27:16.271Z,-84
2017-01-05T13:28:17.020Z,-84
2017-01-05T13:29:16.294Z,-84
2017-01-05T13:30:16.291Z,-84
2017-01-05T13:31:16.444Z,-84
2017-01-05T13:32:17.191Z,-84
2017-01-05T13:33:16.375Z,-84
2017-01-05T13:34:16.418Z,-84
2017-01-05T13:35:16.235Z,-84
2017-01-05T13:36:16.256Z,-84
2017-01-05T13:37:16.356Z,-84
2017-01-05T13:38:16.266Z,-84
2017-01-05T13:39:16.337Z,-85
2017-01-05T13:40:16.341Z,-85
2017-01-05T13:41:16.287Z,-84
2017-01-05T13:42:16.347Z,-84
2017-01-05T13:43:16.405Z,-84
2017-01-05T13:44:16.359Z,-84
2017-01-05T13:45:16.310Z,-84
2017-01-05T13:46:16.310Z,-84